Cyclone, Texas
Current Conditions -  °F | °C
As of 1:55 PM on Saturday 25 Oct 2014 (Local Time) from KT35 Reporting Station
Clear Clear  
Wind Chill: 29°   Ceiling: Unl
Heat Index: 29°   Visibility: 10mi
Dew Point: 16°   Wind: 9mph
Humidity: 45%   Direction: 180°S
Pressure: 30.12"   Gusts: NA
Location:  30.9882°N, 97.103°W
Report Text: KT35 251855Z AUTO 18008KT 10SM CLR 29/16 A3012 RMK AO2 T02930161
Loading
Personal Weather Stations






























Interactive Weather Map
Tropical Storm Tracking
New forecast layout! Learn more

10-Day Weather Forecast

Advertisements
Track Severe Weather on mobile